Time;durP1;ratioP1;P1;durP2;ratioP2;P2;SDS_P1;SDS_P2;PMS_P1;PMS_P2;Temp;Humidity;BMP_temperature;BMP_pressure;BME280_temperature;BME280_humidity;BME280_pressure;Samples;Min_cycle;Max_cycle;Signal;HPM_P1;HPM_P2
2024/01/16 00:00:11;;;;;;;4.88;4.47;;;;;;;-0.47;68.78;97423.06;4991408;28;20234;-75
2024/01/16 00:02:37;;;;;;;5.97;4.45;;;;;;;-0.59;68.90;97424.22;4988891;28;20223;-75
2024/01/16 00:05:06;;;;;;;5.10;3.85;;;;;;;-0.48;69.23;97427.53;4989328;28;20238;-75
2024/01/16 00:07:35;;;;;;;4.20;3.80;;;;;;;-0.63;69.41;97430.81;4988443;28;20215;-74
2024/01/16 00:10:02;;;;;;;4.40;3.95;;;;;;;-0.65;69.31;97419.53;4989336;28;20199;-74
2024/01/16 00:12:28;;;;;;;4.65;4.25;;;;;;;-0.69;69.44;97419.00;4987369;28;20261;-74
2024/01/16 00:14:55;;;;;;;4.10;3.70;;;;;;;-0.77;69.86;97421.53;4991043;28;20235;-74
2024/01/16 00:17:21;;;;;;;5.60;4.30;;;;;;;-0.80;70.06;97424.50;4988102;28;20254;-75
2024/01/16 00:19:48;;;;;;;4.18;3.38;;;;;;;-0.75;69.64;97420.41;5021953;28;20725;-75
2024/01/16 00:22:16;;;;;;;4.28;3.60;;;;;;;-0.96;70.21;97432.22;4989530;28;20198;-75
2024/01/16 00:24:42;;;;;;;4.38;3.97;;;;;;;-1.12;70.85;97422.22;4991029;28;20290;-74
2024/01/16 00:27:09;;;;;;;4.38;3.92;;;;;;;-1.25;70.90;97405.78;4989016;28;20200;-75
2024/01/16 00:29:36;;;;;;;4.85;3.80;;;;;;;-1.21;70.80;97421.28;4990542;28;20226;-74
2024/01/16 00:32:02;;;;;;;5.80;4.00;;;;;;;-1.24;71.22;97429.53;4988841;28;20230;-74
2024/01/16 00:34:29;;;;;;;4.00;3.60;;;;;;;-1.21;70.92;97428.41;4989024;28;20202;-75
2024/01/16 00:36:55;;;;;;;6.10;4.20;;;;;;;-1.29;71.22;97430.94;4986431;28;20660;-75
2024/01/16 00:39:23;;;;;;;5.22;3.70;;;;;;;-1.32;71.52;97428.59;5005527;28;20207;-75
2024/01/16 00:41:49;;;;;;;8.30;4.43;;;;;;;-1.22;71.25;97438.19;4989642;28;20633;-75
2024/01/16 00:44:16;;;;;;;4.78;4.28;;;;;;;-1.24;71.37;97455.22;4988004;28;20214;-74
2024/01/16 00:46:42;;;;;;;5.60;4.00;;;;;;;-1.20;70.88;97430.06;4987774;28;20199;-74
2024/01/16 00:49:09;;;;;;;4.85;4.20;;;;;;;-1.20;71.16;97424.75;4983753;28;20649;-74
2024/01/16 00:51:36;;;;;;;5.18;4.53;;;;;;;-1.21;71.14;97428.41;4989624;28;20223;-75
2024/01/16 00:54:02;;;;;;;4.70;3.80;;;;;;;-1.15;71.02;97433.13;4990663;28;20207;-74
2024/01/16 00:56:32;;;;;;;5.78;3.88;;;;;;;-1.16;71.12;97437.59;4988061;28;20294;-74
2024/01/16 00:58:58;;;;;;;5.07;4.30;;;;;;;-1.20;71.14;97425.59;4982728;28;20290;-75
2024/01/16 01:01:25;;;;;;;5.20;3.47;;;;;;;-1.18;71.23;97428.94;4990341;28;20282;-75
2024/01/16 01:03:52;;;;;;;4.47;3.88;;;;;;;-1.13;70.91;97426.72;4988733;28;20291;-74
2024/01/16 01:06:19;;;;;;;6.85;4.00;;;;;;;-1.13;71.02;97420.56;4998399;28;20213;-74
2024/01/16 01:08:46;;;;;;;6.50;4.30;;;;;;;-1.34;71.55;97425.25;5007030;28;20302;-74
2024/01/16 01:11:12;;;;;;;4.68;4.28;;;;;;;-1.24;71.42;97420.72;4988019;28;20231;-75
2024/01/16 01:13:41;;;;;;;4.47;4.07;;;;;;;-1.33;71.79;97435.72;4990273;28;20211;-75
2024/01/16 01:16:08;;;;;;;4.30;3.88;;;;;;;-1.25;71.40;97427.84;4989998;28;20199;-74
2024/01/16 01:18:35;;;;;;;6.30;4.30;;;;;;;-1.26;71.50;97430.66;4986899;28;20207;-74
2024/01/16 01:21:01;;;;;;;4.68;4.22;;;;;;;-1.36;71.88;97430.69;4989891;28;20224;-74
2024/01/16 01:23:28;;;;;;;5.35;3.78;;;;;;;-1.27;71.80;97435.13;4987651;28;20684;-74
2024/01/16 01:25:54;;;;;;;9.88;4.63;;;;;;;-1.31;71.59;97439.06;4989713;28;20203;-75
2024/01/16 01:28:21;;;;;;;6.05;4.65;;;;;;;-1.21;71.67;97439.00;4989461;28;20203;-75
2024/01/16 01:30:49;;;;;;;5.70;4.68;;;;;;;-1.17;71.41;97440.41;4987914;28;20305;-74
2024/01/16 01:33:16;;;;;;;4.40;4.00;;;;;;;-1.15;71.66;97449.06;4988473;28;20266;-74
2024/01/16 01:35:42;;;;;;;5.38;4.00;;;;;;;-1.14;71.41;97445.44;4987899;28;20234;-75
2024/01/16 01:38:09;;;;;;;4.90;4.10;;;;;;;-1.04;70.77;97456.88;5005634;28;20231;-75
2024/01/16 01:40:35;;;;;;;7.95;4.32;;;;;;;-1.16;71.39;97450.03;4984528;28;20724;-74
2024/01/16 01:43:20;;;;;;;5.90;4.63;;;;;;;-1.19;71.31;97448.50;4994802;28;20231;-74
2024/01/16 01:46:00;;;;;;;6.70;4.03;;;;;;;-1.21;71.21;97458.44;4991148;28;20560;-75
2024/01/16 01:48:26;;;;;;;6.40;4.90;;;;;;;-1.40;71.90;97459.31;4989429;28;20246;-74
2024/01/16 01:50:53;;;;;;;16.70;7.10;;;;;;;-1.25;71.58;97458.84;4993257;28;20318;-75
2024/01/16 01:53:20;;;;;;;5.07;4.35;;;;;;;-1.34;72.12;97460.56;4992681;28;20290;-74
2024/01/16 01:55:47;;;;;;;5.30;3.90;;;;;;;-1.41;72.53;97459.47;4992017;28;20303;-75
2024/01/16 01:58:14;;;;;;;7.70;4.60;;;;;;;-1.42;72.23;97463.09;4993732;28;20644;-74
2024/01/16 02:00:40;;;;;;;6.47;4.70;;;;;;;-1.47;72.37;97465.31;4999454;28;20203;-75
2024/01/16 02:03:08;;;;;;;5.65;4.40;;;;;;;-1.42;72.43;97463.09;4992128;28;20205;-73
2024/01/16 02:05:35;;;;;;;7.68;4.78;;;;;;;-1.60;73.14;97460.31;4992318;28;20257;-75
2024/01/16 02:08:02;;;;;;;9.02;4.63;;;;;;;-1.58;73.09;97471.63;4991955;28;20286;-74
2024/01/16 02:10:29;;;;;;;8.05;4.65;;;;;;;-1.61;73.14;97469.25;4985775;28;20693;-74
2024/01/16 02:12:55;;;;;;;5.18;4.35;;;;;;;-1.57;73.92;97469.78;4989600;28;20301;-74
2024/01/16 02:15:24;;;;;;;6.70;4.50;;;;;;;-1.51;73.45;97463.94;4992103;28;20235;-74
2024/01/16 02:17:50;;;;;;;6.70;4.28;;;;;;;-1.44;73.51;97471.19;4991366;28;20290;-75
2024/01/16 02:20:18;;;;;;;4.50;4.10;;;;;;;-1.29;73.12;97478.69;4990463;28;20318;-74
2024/01/16 02:22:47;;;;;;;4.28;3.88;;;;;;;-1.44;73.12;97473.84;4991157;28;20195;-75
2024/01/16 02:25:15;;;;;;;5.50;4.40;;;;;;;-1.29;72.55;97478.69;4972474;28;20214;-75
2024/01/16 02:27:42;;;;;;;6.55;4.53;;;;;;;-1.32;72.56;97468.41;5022894;28;20278;-75
2024/01/16 02:30:09;;;;;;;5.45;4.57;;;;;;;-1.31;72.48;97467.41;4998469;28;20235;-74
2024/01/16 02:32:35;;;;;;;6.15;3.80;;;;;;;-1.20;72.07;97461.94;4993765;28;21199;-74
2024/01/16 02:35:02;;;;;;;6.80;4.35;;;;;;;-1.23;72.37;97465.69;4991880;28;20286;-74
2024/01/16 02:37:28;;;;;;;8.18;4.25;;;;;;;-1.21;72.11;97465.56;4987939;28;20302;-74
2024/01/16 02:39:55;;;;;;;5.15;4.63;;;;;;;-1.26;71.95;97468.63;4993724;28;20207;-74
2024/01/16 02:42:23;;;;;;;6.28;4.95;;;;;;;-1.33;72.32;97472.03;4993561;28;20200;-75
2024/01/16 02:44:49;;;;;;;8.07;4.35;;;;;;;-1.31;72.67;97472.72;4991597;28;20282;-74
2024/01/16 02:47:16;;;;;;;5.50;4.13;;;;;;;-1.44;72.47;97473.84;4990603;28;20208;-74
2024/01/16 02:49:42;;;;;;;5.07;4.30;;;;;;;-1.45;72.55;97474.81;4991534;28;20645;-74
2024/01/16 02:52:09;;;;;;;5.68;4.97;;;;;;;-1.38;72.30;97475.94;4990136;28;20309;-75
2024/01/16 02:54:36;;;;;;;5.53;4.80;;;;;;;-1.45;72.50;97479.28;4989967;28;20213;-74
2024/01/16 02:57:02;;;;;;;6.50;4.95;;;;;;;-1.44;72.27;97487.13;4989619;28;20199;-75
2024/01/16 02:59:31;;;;;;;5.22;4.35;;;;;;;-1.38;72.16;97480.41;4990300;28;20724;-75
2024/01/16 03:01:57;;;;;;;6.60;4.75;;;;;;;-1.31;72.35;97483.34;4989875;28;20199;-75
2024/01/16 03:04:24;;;;;;;5.75;4.57;;;;;;;-1.25;71.97;97486.25;4991682;28;20215;-75
2024/01/16 03:06:50;;;;;;;5.28;4.40;;;;;;;-1.47;72.22;97482.09;4990243;28;20286;-75
2024/01/16 03:09:18;;;;;;;5.88;4.80;;;;;;;-1.42;72.26;97479.84;4992279;28;20601;-74
2024/01/16 03:11:44;;;;;;;5.70;4.50;;;;;;;-1.41;72.24;97488.66;4988564;28;20230;-74
2024/01/16 03:14:11;;;;;;;6.68;4.68;;;;;;;-1.41;72.32;97484.19;4995995;28;20538;-74
2024/01/16 03:16:39;;;;;;;6.38;5.03;;;;;;;-1.29;71.83;97489.31;4984596;28;20207;-75
2024/01/16 03:19:06;;;;;;;4.68;4.18;;;;;;;-1.48;72.10;97493.69;4990470;28;20200;-74
2024/01/16 03:21:33;;;;;;;5.90;4.47;;;;;;;-1.50;72.63;97490.31;4990416;28;20218;-75
2024/01/16 03:23:59;;;;;;;5.88;4.15;;;;;;;-1.47;72.15;97486.56;4991969;28;20199;-74
2024/01/16 03:26:26;;;;;;;5.20;4.70;;;;;;;-1.47;71.90;97482.09;4989595;28;20285;-74
2024/01/16 03:28:52;;;;;;;5.38;4.88;;;;;;;-1.58;72.35;97487.53;4989667;28;20569;-74
2024/01/16 03:31:21;;;;;;;6.05;4.22;;;;;;;-1.68;72.33;97492.03;4991331;28;20258;-75
2024/01/16 03:33:49;;;;;;;6.78;4.70;;;;;;;-1.44;72.04;97496.88;4990015;28;20657;-75
2024/01/16 03:36:15;;;;;;;6.28;4.97;;;;;;;-1.60;72.37;97489.47;4990182;28;20332;-74
2024/01/16 03:38:43;;;;;;;8.35;5.07;;;;;;;-1.66;72.65;97498.03;4990671;28;20286;-75
2024/01/16 03:41:12;;;;;;;6.97;4.97;;;;;;;-1.89;73.44;97492.13;4990104;28;20206;-74
2024/01/16 03:43:38;;;;;;;5.55;4.18;;;;;;;-1.83;73.37;97496.03;4989923;28;20207;-74
2024/01/16 03:46:05;;;;;;;5.05;4.55;;;;;;;-1.73;73.08;97491.59;4991411;28;20651;-74
2024/01/16 03:48:31;;;;;;;7.50;4.72;;;;;;;-1.72;72.85;97487.97;4991360;28;20199;-74
2024/01/16 03:50:59;;;;;;;6.28;5.63;;;;;;;-1.87;73.30;97484.88;4990843;28;20206;-74
2024/01/16 03:53:26;;;;;;;6.68;5.10;;;;;;;-1.94;73.75;97480.25;4998578;28;20291;-74
2024/01/16 03:55:52;;;;;;;5.25;4.72;;;;;;;-1.88;73.55;97474.41;4988592;28;20641;-74
2024/01/16 03:58:19;;;;;;;9.20;4.88;;;;;;;-1.92;73.47;97473.00;4997447;28;20619;-73
2024/01/16 04:00:46;;;;;;;8.75;5.30;;;;;;;-2.05;73.39;97476.78;4990501;28;20653;-75
2024/01/16 04:03:13;;;;;;;5.63;5.07;;;;;;;-2.18;73.71;97473.53;4989627;28;20771;-74
2024/01/16 04:05:39;;;;;;;7.68;4.82;;;;;;;-2.12;73.64;97480.94;4990628;28;20334;-75
2024/01/16 04:08:07;;;;;;;6.85;5.63;;;;;;;-2.13;73.51;97483.75;4990371;28;20199;-75
2024/01/16 04:10:34;;;;;;;5.22;4.72;;;;;;;-2.19;73.48;97478.97;4998930;28;20201;-75
2024/01/16 04:13:01;;;;;;;6.30;4.93;;;;;;;-2.17;73.69;97474.38;4990046;28;20657;-74
2024/01/16 04:15:28;;;;;;;6.72;4.78;;;;;;;-2.22;73.69;97484.53;4989468;28;20256;-74
2024/01/16 04:17:54;;;;;;;5.43;4.60;;;;;;;-2.21;74.06;97478.28;4990116;28;20211;-74
2024/01/16 04:20:21;;;;;;;5.20;4.63;;;;;;;-2.34;74.23;97478.53;4989162;28;20209;-74
2024/01/16 04:22:48;;;;;;;6.15;4.80;;;;;;;-2.43;74.37;97476.69;4988296;28;20191;-74
2024/01/16 04:25:16;;;;;;;6.38;5.10;;;;;;;-2.54;74.19;97474.97;4980607;28;20211;-74
2024/01/16 04:27:42;;;;;;;5.53;4.80;;;;;;;-2.54;74.30;97476.78;4984392;28;20287;-75
2024/01/16 04:30:10;;;;;;;5.80;4.57;;;;;;;-2.64;74.82;97475.94;4966845;28;20205;-75
2024/01/16 04:32:36;;;;;;;5.55;5.00;;;;;;;-2.80;74.98;97463.19;4989433;28;20215;-74
2024/01/16 04:35:03;;;;;;;7.85;5.40;;;;;;;-2.69;74.56;97472.84;5002950;28;20293;-74
2024/01/16 04:37:30;;;;;;;5.97;4.90;;;;;;;-2.68;74.76;97467.44;4987815;28;20211;-74
2024/01/16 04:39:57;;;;;;;7.50;5.00;;;;;;;-2.70;74.87;97474.66;4987832;28;20582;-74
2024/01/16 04:42:25;;;;;;;8.48;5.30;;;;;;;-2.75;75.08;97472.41;4990726;28;20242;-75
2024/01/16 04:44:52;;;;;;;7.70;5.30;;;;;;;-2.76;74.92;97480.50;4988077;28;20210;-74
2024/01/16 04:47:18;;;;;;;9.95;4.88;;;;;;;-2.88;75.20;97492.13;4988744;28;20307;-74
2024/01/16 04:49:45;;;;;;;5.43;4.85;;;;;;;-2.92;75.11;97482.81;4987304;28;20203;-74
2024/01/16 04:52:12;;;;;;;6.35;4.82;;;;;;;-2.91;75.34;97485.28;4981712;28;20231;-74
2024/01/16 04:54:38;;;;;;;8.43;4.95;;;;;;;-2.93;75.13;97473.19;5018629;28;20200;-74
2024/01/16 04:57:05;;;;;;;6.25;4.40;;;;;;;-2.87;74.95;97478.75;4988027;28;20281;-74
2024/01/16 04:59:36;;;;;;;5.28;4.63;;;;;;;-3.07;75.57;97482.28;4987461;28;20221;-73
2024/01/16 05:02:03;;;;;;;5.93;5.25;;;;;;;-3.08;75.63;97473.53;4987822;28;20226;-73
2024/01/16 05:04:29;;;;;;;6.68;4.78;;;;;;;-3.16;75.87;97472.50;4988927;28;21079;-74
2024/01/16 05:06:56;;;;;;;6.22;4.85;;;;;;;-3.01;75.53;97471.19;4988579;28;20246;-73
2024/01/16 05:09:22;;;;;;;6.57;4.95;;;;;;;-3.03;75.17;97472.28;4989090;28;22142;-74
2024/01/16 05:11:49;;;;;;;6.72;4.55;;;;;;;-2.94;74.91;97467.06;4988447;28;20569;-74
2024/01/16 05:14:15;;;;;;;6.70;4.78;;;;;;;-2.98;75.03;97464.81;4991091;28;20289;-74
2024/01/16 05:16:44;;;;;;;6.20;4.75;;;;;;;-3.01;75.24;97457.13;4990473;28;20199;-75
2024/01/16 05:19:11;;;;;;;4.68;4.05;;;;;;;-2.99;74.91;97453.38;4991857;28;20212;-73
2024/01/16 05:21:37;;;;;;;6.63;4.53;;;;;;;-2.97;74.64;97466.47;4990712;28;20753;-73
2024/01/16 05:24:04;;;;;;;5.80;4.43;;;;;;;-3.02;75.13;97456.28;4993094;28;20628;-74
2024/01/16 05:26:31;;;;;;;7.82;4.45;;;;;;;-2.97;74.59;97462.03;4985920;28;20203;-72
2024/01/16 05:28:57;;;;;;;5.00;4.50;;;;;;;-2.88;74.37;97463.00;4992730;28;20296;-73
2024/01/16 05:31:24;;;;;;;5.15;4.35;;;;;;;-2.84;74.16;97462.63;4992897;28;20258;-71
2024/01/16 05:33:52;;;;;;;8.32;4.32;;;;;;;-2.81;73.93;97453.56;4989509;28;20219;-72
2024/01/16 05:36:18;;;;;;;6.82;4.80;;;;;;;-2.79;74.41;97457.75;5006910;28;20217;-72
2024/01/16 05:38:45;;;;;;;6.03;4.80;;;;;;;-2.64;74.06;97452.13;4990806;28;20286;-72
2024/01/16 05:41:11;;;;;;;5.32;4.65;;;;;;;-2.73;73.73;97451.94;4990742;28;20223;-72
2024/01/16 05:43:38;;;;;;;4.68;4.10;;;;;;;-2.59;73.41;97450.72;4993725;28;20206;-73
2024/01/16 05:46:05;;;;;;;4.88;4.00;;;;;;;-2.67;73.11;97453.22;4990916;28;20282;-73
2024/01/16 05:48:33;;;;;;;5.97;4.53;;;;;;;-2.62;73.04;97452.81;4993266;28;20210;-72
2024/01/16 05:51:01;;;;;;;8.13;4.75;;;;;;;-2.64;73.29;97452.13;4992062;28;20225;-72
2024/01/16 05:53:27;;;;;;;5.43;4.10;;;;;;;-2.53;72.86;97449.34;4992644;28;20227;-73
2024/01/16 05:55:54;;;;;;;5.80;4.80;;;;;;;-2.61;73.15;97438.59;4991582;28;20203;-72
2024/01/16 05:58:21;;;;;;;6.20;4.50;;;;;;;-2.41;72.79;97442.97;4990516;28;20204;-74
2024/01/16 06:00:47;;;;;;;6.28;4.90;;;;;;;-2.25;72.25;97437.13;4990801;28;22898;-78
2024/01/16 06:03:14;;;;;;;6.80;4.75;;;;;;;-2.42;73.06;97441.28;4992094;28;20196;-73
2024/01/16 06:05:41;;;;;;;5.40;4.38;;;;;;;-2.50;72.52;97444.59;4993269;28;20534;-74
2024/01/16 06:08:09;;;;;;;5.43;4.28;;;;;;;-2.57;72.58;97437.34;4993488;28;20203;-76
2024/01/16 06:10:36;;;;;;;5.25;4.07;;;;;;;-2.37;71.90;97429.31;4971484;28;20217;-76
2024/01/16 06:13:03;;;;;;;7.07;5.30;;;;;;;-2.45;71.76;97430.97;4990354;28;20226;-75
2024/01/16 06:15:29;;;;;;;5.88;4.40;;;;;;;-2.23;72.14;97436.00;4985509;28;20298;-76
2024/01/16 06:17:56;;;;;;;5.82;4.53;;;;;;;-2.35;71.74;97431.81;4992807;28;20669;-74
2024/01/16 06:20:24;;;;;;;5.80;4.80;;;;;;;-2.32;71.69;97438.66;4992824;28;20911;-75
2024/01/16 06:22:51;;;;;;;6.20;4.10;;;;;;;-2.42;72.47;97436.00;4990565;28;20203;-74
2024/01/16 06:25:18;;;;;;;4.82;4.13;;;;;;;-2.39;72.13;97425.13;4991159;28;20199;-74
2024/01/16 06:27:45;;;;;;;5.15;4.30;;;;;;;-2.44;72.39;97427.34;4991308;28;20208;-73
2024/01/16 06:30:13;;;;;;;6.78;4.97;;;;;;;-2.67;72.60;97431.19;4996338;28;20596;-72
2024/01/16 06:32:39;;;;;;;5.35;4.30;;;;;;;-2.54;73.27;97432.59;4991715;28;20255;-72
2024/01/16 06:35:07;;;;;;;9.43;4.68;;;;;;;-2.56;73.18;97423.13;4991706;28;20245;-73
2024/01/16 06:37:34;;;;;;;5.22;4.50;;;;;;;-2.51;72.89;97436.81;4992862;28;20215;-73
2024/01/16 06:40:00;;;;;;;8.70;5.13;;;;;;;-2.58;73.27;97431.19;4990338;28;20277;-73
2024/01/16 06:42:29;;;;;;;6.90;5.10;;;;;;;-2.71;73.58;97434.13;4990820;28;20209;-72
2024/01/16 06:44:55;;;;;;;5.90;5.00;;;;;;;-2.61;73.45;97443.91;4988884;28;20199;-72
2024/01/16 06:47:23;;;;;;;7.72;5.38;;;;;;;-2.61;73.50;97436.78;4992439;28;20209;-73
2024/01/16 06:49:50;;;;;;;6.72;5.60;;;;;;;-2.44;73.44;97432.63;4990018;28;20207;-73
2024/01/16 06:52:16;;;;;;;7.85;5.72;;;;;;;-2.39;73.07;97438.38;4993051;28;20202;-73
2024/01/16 06:54:43;;;;;;;7.30;5.05;;;;;;;-2.80;74.07;97442.84;4990694;28;20210;-72
2024/01/16 06:57:09;;;;;;;6.65;5.55;;;;;;;-2.84;74.49;97433.50;4991423;28;20665;-72
2024/01/16 06:59:37;;;;;;;6.32;5.40;;;;;;;-2.69;74.23;97439.28;4989728;28;20203;-73
2024/01/16 07:02:04;;;;;;;6.45;4.93;;;;;;;-2.69;74.16;97441.91;4988510;28;20298;-72
2024/01/16 07:04:31;;;;;;;7.18;5.63;;;;;;;-2.63;74.24;97448.50;4991144;28;20199;-72
2024/01/16 07:06:59;;;;;;;6.43;5.07;;;;;;;-2.62;74.17;97443.06;4988167;28;20294;-71
2024/01/16 07:09:27;;;;;;;9.38;5.65;;;;;;;-2.45;73.77;97446.84;4998675;28;20302;-72
2024/01/16 07:11:53;;;;;;;7.95;5.45;;;;;;;-2.42;73.64;97446.59;4988137;28;20214;-72
2024/01/16 07:14:20;;;;;;;6.43;4.97;;;;;;;-2.41;73.53;97442.97;4992147;28;20227;-73
2024/01/16 07:16:49;;;;;;;6.63;4.55;;;;;;;-2.30;72.77;97440.22;5024350;28;20679;-73
2024/01/16 07:19:16;;;;;;;9.88;5.22;;;;;;;-2.32;72.81;97443.97;4984773;28;20238;-72
2024/01/16 07:21:44;;;;;;;5.30;4.30;;;;;;;-2.28;72.48;97438.25;4991650;28;20209;-73
2024/01/16 07:24:13;;;;;;;6.38;4.68;;;;;;;-2.23;71.76;97436.00;4990369;28;20207;-72
2024/01/16 07:26:41;;;;;;;6.05;4.05;;;;;;;-2.27;71.73;97436.44;4992223;28;20238;-73
2024/01/16 07:29:08;;;;;;;6.70;4.50;;;;;;;-2.23;71.41;97438.66;4988610;28;20203;-72
2024/01/16 07:31:35;;;;;;;4.65;4.00;;;;;;;-2.27;71.49;97442.56;4989205;28;20211;-72
2024/01/16 07:34:04;;;;;;;5.50;4.00;;;;;;;-2.23;71.09;97437.81;4991837;28;20222;-72
2024/01/16 07:36:31;;;;;;;4.45;4.03;;;;;;;-2.25;70.87;97437.97;4998596;28;20207;-72
2024/01/16 07:38:57;;;;;;;4.78;4.13;;;;;;;-2.15;70.70;97432.69;4989321;28;20203;-72
2024/01/16 07:41:24;;;;;;;7.07;4.32;;;;;;;-2.13;70.89;97438.69;4990621;28;20330;-73
2024/01/16 07:43:49;;;;;;;6.15;4.18;;;;;;;-2.16;70.82;97437.13;4990965;28;20198;-72
2024/01/16 07:46:16;;;;;;;5.60;3.87;;;;;;;-2.11;70.54;97439.38;4991334;28;20203;-72
2024/01/16 07:48:42;;;;;;;4.93;3.70;;;;;;;-2.03;70.34;97431.59;4991680;28;20285;-72
2024/01/16 07:51:10;;;;;;;5.50;4.00;;;;;;;-1.99;69.96;97432.16;4992268;28;20213;-72
2024/01/16 07:53:37;;;;;;;4.57;3.88;;;;;;;-2.03;69.79;97427.13;4995034;28;20222;-72
2024/01/16 07:56:04;;;;;;;5.75;4.50;;;;;;;-1.86;69.37;97441.47;4994665;28;20203;-73
2024/01/16 07:58:31;;;;;;;5.05;4.55;;;;;;;-1.75;68.85;97438.69;4995907;28;20203;-73
2024/01/16 08:00:57;;;;;;;7.30;4.95;;;;;;;-1.79;69.08;97444.41;4989968;28;20203;-72
2024/01/16 08:03:24;;;;;;;6.20;4.13;;;;;;;-1.60;68.59;97439.09;4988385;28;20306;-72
2024/01/16 08:05:51;;;;;;;5.45;4.13;;;;;;;-1.65;68.53;97438.69;4987173;28;20266;-72
2024/01/16 08:08:19;;;;;;;6.53;5.07;;;;;;;-1.65;68.47;97430.75;4982060;28;20207;-72
2024/01/16 08:10:47;;;;;;;9.60;4.90;;;;;;;-1.59;68.37;97438.09;4981688;28;20941;-71
2024/01/16 08:13:13;;;;;;;5.55;3.88;;;;;;;-1.46;67.63;97437.81;4982396;28;20211;-72
2024/01/16 08:15:40;;;;;;;5.85;3.90;;;;;;;-1.57;67.54;97438.81;4985389;28;20549;-72
2024/01/16 08:18:06;;;;;;;6.82;4.22;;;;;;;-1.44;67.11;97436.69;4985582;28;20230;-73
2024/01/16 08:20:32;;;;;;;4.68;3.60;;;;;;;-1.18;66.07;97436.06;5001505;28;20210;-72
2024/01/16 08:22:59;;;;;;;6.03;4.27;;;;;;;-1.41;66.20;97438.22;4985975;28;20196;-72
2024/01/16 08:25:27;;;;;;;5.85;4.15;;;;;;;-1.29;65.66;97442.38;4984323;28;20249;-73
2024/01/16 08:27:53;;;;;;;4.72;4.00;;;;;;;-1.39;65.67;97442.41;4986640;28;20200;-72
2024/01/16 08:30:20;;;;;;;6.40;3.50;;;;;;;-1.26;64.76;97443.91;4990364;28;20230;-73
2024/01/16 08:32:47;;;;;;;5.43;3.70;;;;;;;-1.32;64.72;97444.50;4985593;28;20243;-72
2024/01/16 08:35:14;;;;;;;5.13;3.40;;;;;;;-1.36;64.91;97444.78;5004764;28;20207;-72
2024/01/16 08:37:40;;;;;;;5.05;3.17;;;;;;;-1.42;64.81;97447.19;4989343;28;20207;-72
2024/01/16 08:40:08;;;;;;;5.20;3.63;;;;;;;-1.49;64.91;97457.50;4986911;28;20203;-72
2024/01/16 08:42:36;;;;;;;4.93;3.67;;;;;;;-1.44;64.18;97462.41;4985657;28;20241;-73
2024/01/16 08:45:02;;;;;;;4.93;3.55;;;;;;;-1.51;64.57;97459.47;4984370;28;20210;-73
2024/01/16 08:47:30;;;;;;;4.93;4.05;;;;;;;-1.50;64.65;97466.44;4985676;28;20226;-72
2024/01/16 08:49:56;;;;;;;3.78;3.35;;;;;;;-1.56;65.90;97463.50;4986407;28;20211;-72
2024/01/16 08:52:23;;;;;;;6.95;4.22;;;;;;;-1.43;65.43;97462.25;4986018;28;20211;-73
2024/01/16 08:54:50;;;;;;;5.90;3.50;;;;;;;-1.44;65.19;97465.88;4987064;28;20238;-72
2024/01/16 08:57:16;;;;;;;6.32;3.88;;;;;;;-1.37;64.41;97471.47;4986994;28;20214;-73
2024/01/16 08:59:44;;;;;;;5.00;3.38;;;;;;;-1.10;63.84;97473.38;4988537;28;20206;-72
2024/01/16 09:02:12;;;;;;;3.85;3.35;;;;;;;-0.96;63.16;97472.88;4990392;28;20283;-72
2024/01/16 09:04:38;;;;;;;4.35;3.65;;;;;;;-0.82;62.47;97479.56;4991305;28;20208;-72
2024/01/16 09:07:05;;;;;;;4.78;3.13;;;;;;;-0.91;62.73;97481.28;4973229;28;20220;-72
2024/01/16 09:09:31;;;;;;;6.28;3.90;;;;;;;-1.05;62.41;97476.44;4989884;28;20281;-72
2024/01/16 09:11:59;;;;;;;9.40;4.30;;;;;;;-1.06;63.16;97477.41;4987435;28;20221;-73
2024/01/16 09:14:25;;;;;;;7.00;3.88;;;;;;;-0.65;62.06;97473.50;4984668;28;20222;-73
2024/01/16 09:16:54;;;;;;;4.38;3.15;;;;;;;-0.72;61.87;97467.94;4985569;28;20576;-72
2024/01/16 09:19:21;;;;;;;6.57;4.00;;;;;;;-0.75;61.66;97470.03;4985703;28;20209;-72
2024/01/16 09:21:47;;;;;;;8.27;4.05;;;;;;;-0.90;61.65;97468.81;4988316;28;20743;-73
2024/01/16 09:24:14;;;;;;;5.20;3.60;;;;;;;-0.96;62.42;97472.06;4988974;28;20282;-73
2024/01/16 09:26:40;;;;;;;4.43;3.53;;;;;;;-0.89;62.00;97479.31;4987756;28;20213;-72
2024/01/16 09:29:09;;;;;;;4.07;3.30;;;;;;;-0.93;62.48;97477.09;4989250;28;20207;-72
2024/01/16 09:31:36;;;;;;;6.93;3.90;;;;;;;-0.73;61.51;97478.72;4990202;28;20242;-73
2024/01/16 09:34:04;;;;;;;5.15;3.58;;;;;;;-0.74;61.36;97480.53;4990130;28;20715;-73
2024/01/16 09:36:31;;;;;;;6.35;3.65;;;;;;;-0.65;60.49;97481.47;4988941;28;20219;-73
2024/01/16 09:38:57;;;;;;;5.32;3.70;;;;;;;-0.82;61.23;97476.91;4986547;28;20200;-78
2024/01/16 09:41:24;;;;;;;4.70;3.35;;;;;;;-0.76;61.15;97476.34;4966842;28;20219;-73
2024/01/16 09:43:52;;;;;;;3.60;3.30;;;;;;;-0.58;60.86;97487.03;4989112;28;20207;-73
2024/01/16 09:46:18;;;;;;;6.72;3.78;;;;;;;-0.75;61.14;97476.19;4989385;28;20226;-71
2024/01/16 09:48:46;;;;;;;5.43;3.65;;;;;;;-0.56;61.27;97485.91;4989185;28;20215;-73
2024/01/16 09:51:15;;;;;;;4.32;3.63;;;;;;;-0.26;60.80;97479.44;4989517;28;20269;-73
2024/01/16 09:53:42;;;;;;;5.65;3.42;;;;;;;-0.39;60.60;97478.97;4988447;28;20219;-73
2024/01/16 09:56:15;;;;;;;10.30;3.80;;;;;;;-0.34;60.87;97476.72;4989886;28;20222;-73
2024/01/16 09:58:42;;;;;;;8.38;3.83;;;;;;;-0.20;60.38;97468.22;4992012;28;20289;-73
2024/01/16 10:01:09;;;;;;;4.25;3.80;;;;;;;0.16;59.81;97470.94;4992865;28;20206;-74
2024/01/16 10:03:36;;;;;;;7.07;3.72;;;;;;;0.19;59.46;97473.28;4990220;28;20668;-74
2024/01/16 10:06:05;;;;;;;7.72;4.10;;;;;;;0.10;59.66;97467.03;4992525;28;20262;-73
2024/01/16 10:08:33;;;;;;;10.05;3.35;;;;;;;0.32;58.96;97463.94;4992104;28;20211;-73
2024/01/16 10:10:59;;;;;;;7.38;3.78;;;;;;;0.39;58.89;97461.50;4992114;28;20206;-73
2024/01/16 10:13:27;;;;;;;6.90;3.67;;;;;;;0.62;58.11;97454.72;4994174;28;20199;-73
2024/01/16 10:15:55;;;;;;;6.15;3.85;;;;;;;0.75;57.80;97456.13;4993154;28;20200;-72
2024/01/16 10:18:25;;;;;;;8.10;3.67;;;;;;;0.64;58.40;97444.75;4994627;28;20245;-73
2024/01/16 10:20:52;;;;;;;9.48;4.15;;;;;;;0.55;58.33;97453.66;5006666;28;20199;-73
2024/01/16 10:23:23;;;;;;;8.13;4.35;;;;;;;0.67;57.18;97440.91;5000872;28;20266;-73
2024/01/16 10:28:46;;;;;;;5.63;4.63;;;;;;;0.94;57.92;97435.47;5071398;27;20788;-72
2024/01/16 10:31:15;;;;;;;9.35;4.30;;;;;;;1.00;57.35;97437.47;5063604;28;20315;-72
2024/01/16 10:33:41;;;;;;;5.95;4.00;;;;;;;1.18;55.78;97424.09;5064607;28;20684;-73
2024/01/16 10:36:12;;;;;;;5.50;3.80;;;;;;;1.44;55.99;97423.22;5061065;28;20216;-73
2024/01/16 10:38:41;;;;;;;4.13;3.72;;;;;;;1.79;55.00;97414.19;5064130;28;20243;-72
2024/01/16 10:41:11;;;;;;;7.53;4.35;;;;;;;2.07;54.32;97414.72;5063642;28;20235;-73
2024/01/16 10:43:37;;;;;;;4.63;3.75;;;;;;;2.20;53.67;97426.59;5064194;28;20232;-73
2024/01/16 10:46:15;;;;;;;4.93;3.60;;;;;;;2.47;52.77;97428.13;5060815;28;20253;-73
2024/01/16 10:48:45;;;;;;;5.85;3.63;;;;;;;3.16;52.15;97428.56;5062259;28;20284;-75
2024/01/16 10:51:13;;;;;;;5.05;4.10;;;;;;;3.56;50.44;97435.63;5061169;28;20291;-75
2024/01/16 10:53:43;;;;;;;4.78;3.97;;;;;;;3.69;48.66;97419.84;5061998;28;20205;-74
2024/01/16 10:56:11;;;;;;;4.80;3.70;;;;;;;3.79;48.21;97419.63;5062339;28;20646;-74
2024/01/16 10:58:41;;;;;;;7.78;4.50;;;;;;;3.97;48.85;97406.81;5057463;28;20291;-76
2024/01/16 11:01:11;;;;;;;3.40;3.10;;;;;;;4.18;47.68;97408.88;5064820;28;20200;-75
2024/01/16 11:03:44;;;;;;;5.55;3.55;;;;;;;5.27;45.81;97400.34;5062177;28;20659;-75
2024/01/16 11:06:11;;;;;;;7.68;3.85;;;;;;;6.16;43.52;97395.72;5061056;28;20549;-74
2024/01/16 11:08:38;;;;;;;5.13;4.55;;;;;;;6.61;42.91;97391.81;5044848;28;20227;-75
2024/01/16 11:11:05;;;;;;;4.65;3.35;;;;;;;6.89;41.35;97389.16;5059270;28;20674;-75
2024/01/16 11:13:34;;;;;;;4.88;3.85;;;;;;;6.42;41.44;97390.63;5057219;28;20680;-75
2024/01/16 11:16:01;;;;;;;6.57;3.70;;;;;;;6.92;41.49;97391.44;5056333;28;20193;-74
2024/01/16 11:18:28;;;;;;;4.63;4.07;;;;;;;7.63;39.55;97381.34;5057112;28;20250;-75
2024/01/16 11:20:57;;;;;;;7.60;3.63;;;;;;;7.85;38.65;97365.88;5059435;28;20207;-74
2024/01/16 11:23:24;;;;;;;6.63;3.90;;;;;;;7.47;39.57;97373.63;5042829;28;20212;-75
2024/01/16 11:25:51;;;;;;;6.00;4.00;;;;;;;6.63;41.18;97376.31;5063550;28;20535;-74
2024/01/16 11:28:19;;;;;;;7.75;4.38;;;;;;;6.61;41.23;97368.44;5063756;28;20223;-75
2024/01/16 11:30:45;;;;;;;6.10;3.60;;;;;;;6.79;41.94;97367.16;5061720;28;20689;-74
2024/01/16 11:33:46;;;;;;;8.50;4.10;;;;;;;7.13;40.59;97353.75;5064016;28;20196;-75
2024/01/16 11:36:46;;;;;;;8.52;4.22;;;;;;;7.51;39.43;97343.38;5062002;28;20246;-74